createdAt,value
2019-01-04T00:01:18.725Z,6.20
2019-01-04T00:03:45.054Z,6.27
2019-01-04T00:06:11.313Z,8.90
2019-01-04T00:08:37.566Z,7.97
2019-01-04T00:11:03.821Z,9.73
2019-01-04T00:13:30.074Z,7.10
2019-01-04T00:15:56.300Z,11.10
2019-01-04T00:18:22.561Z,7.63
2019-01-04T00:20:48.827Z,7.97
2019-01-04T00:23:15.043Z,7.47
2019-01-04T00:25:41.323Z,8.07
2019-01-04T00:28:07.567Z,8.67
2019-01-04T00:30:33.827Z,7.47
2019-01-04T00:33:00.070Z,6.67
2019-01-04T00:35:26.316Z,6.67
2019-01-04T00:37:52.756Z,6.00
2019-01-04T00:40:19.005Z,5.60
2019-01-04T00:42:45.237Z,8.23
2019-01-04T00:45:11.479Z,6.07
2019-01-04T00:47:37.751Z,7.00
2019-01-04T00:50:06.401Z,6.50
2019-01-04T00:52:32.693Z,8.03
2019-01-04T00:55:00.036Z,7.07
2019-01-04T00:57:35.984Z,7.00
2019-01-04T01:00:39.787Z,6.63
2019-01-04T01:03:27.919Z,5.27
2019-01-04T01:06:23.879Z,7.47
2019-01-04T01:09:15.269Z,6.00
2019-01-04T01:11:54.097Z,8.10
2019-01-04T01:14:50.289Z,6.60
2019-01-04T01:17:37.175Z,6.27
2019-01-04T01:20:23.837Z,5.97
2019-01-04T01:23:09.043Z,7.33
2019-01-04T01:26:05.098Z,9.20
2019-01-04T01:28:53.477Z,6.30
2019-01-04T01:31:23.633Z,7.53
2019-01-04T01:33:53.671Z,9.47
2019-01-04T01:36:51.322Z,6.00
2019-01-04T01:39:56.290Z,8.93
2019-01-04T01:42:34.684Z,8.43
2019-01-04T01:45:17.072Z,8.23
2019-01-04T01:47:43.323Z,8.90
2019-01-04T01:50:38.820Z,6.87
2019-01-04T01:53:05.156Z,8.43
2019-01-04T01:55:31.398Z,7.40
2019-01-04T01:57:57.621Z,9.23
2019-01-04T02:00:23.964Z,6.87
2019-01-04T02:02:50.304Z,8.13
2019-01-04T02:05:16.536Z,8.83
2019-01-04T02:07:42.793Z,8.97
2019-01-04T02:10:09.023Z,6.13
2019-01-04T02:12:35.175Z,8.90
2019-01-04T02:15:01.541Z,7.97
2019-01-04T02:17:27.765Z,6.23
2019-01-04T02:19:54.147Z,6.13
2019-01-04T02:22:20.375Z,5.57
2019-01-04T02:24:46.538Z,5.33
2019-01-04T02:27:12.770Z,5.73
2019-01-04T02:29:38.945Z,6.73
2019-01-04T02:32:05.199Z,6.20
2019-01-04T02:34:31.436Z,8.60
2019-01-04T02:36:57.686Z,6.13
2019-01-04T02:39:24.002Z,4.43
2019-01-04T02:41:50.174Z,5.63
2019-01-04T02:44:16.405Z,5.33
2019-01-04T02:46:42.696Z,6.13
2019-01-04T02:49:08.935Z,4.33
2019-01-04T02:51:35.178Z,6.77
2019-01-04T02:54:01.421Z,5.97
2019-01-04T02:56:27.658Z,7.03
2019-01-04T02:58:53.898Z,5.20
2019-01-04T03:01:20.146Z,6.77
2019-01-04T03:03:46.402Z,4.90
2019-01-04T03:06:12.649Z,5.40
2019-01-04T03:08:38.900Z,5.83
2019-01-04T03:11:05.122Z,5.37
2019-01-04T03:13:31.269Z,7.83
2019-01-04T03:15:57.509Z,6.90
2019-01-04T03:18:23.755Z,4.77
2019-01-04T03:20:49.982Z,7.10
2019-01-04T03:23:16.258Z,7.50
2019-01-04T03:25:42.511Z,5.37
2019-01-04T03:28:08.788Z,8.47
2019-01-04T03:30:35.039Z,6.67
2019-01-04T03:33:01.310Z,6.93
2019-01-04T03:35:27.499Z,6.93
2019-01-04T03:37:53.762Z,4.67
2019-01-04T03:40:20.011Z,5.73
2019-01-04T03:42:46.266Z,5.67
2019-01-04T03:45:12.501Z,6.20
2019-01-04T03:47:38.756Z,4.57
2019-01-04T03:50:05.078Z,7.57
2019-01-04T03:52:31.306Z,5.57
2019-01-04T03:54:57.506Z,5.57
2019-01-04T03:57:23.861Z,4.80
2019-01-04T03:59:50.096Z,5.77
2019-01-04T04:02:16.398Z,8.10
2019-01-04T04:04:42.654Z,7.13
2019-01-04T04:07:09.032Z,5.47
2019-01-04T04:09:35.320Z,6.07
2019-01-04T04:12:01.568Z,5.80
2019-01-04T04:14:27.942Z,6.27
2019-01-04T04:16:54.245Z,6.00
2019-01-04T04:19:20.571Z,7.60
2019-01-04T04:21:46.852Z,6.87
2019-01-04T04:24:13.206Z,7.53
2019-01-04T04:26:39.590Z,8.87
2019-01-04T04:29:05.956Z,6.30
2019-01-04T04:31:32.336Z,5.87
2019-01-04T04:33:58.702Z,6.10
2019-01-04T04:36:25.085Z,9.27
2019-01-04T04:38:51.223Z,8.17
2019-01-04T04:41:17.509Z,9.17
2019-01-04T04:43:43.875Z,8.10
2019-01-04T04:46:10.157Z,9.97
2019-01-04T04:48:36.593Z,7.50
2019-01-04T04:51:02.943Z,6.80
2019-01-04T04:53:29.237Z,5.43
2019-01-04T04:55:55.504Z,6.40
2019-01-04T04:58:21.908Z,7.53
2019-01-04T05:00:48.158Z,8.57
2019-01-04T05:03:14.428Z,7.20
2019-01-04T05:05:40.678Z,7.20
2019-01-04T05:08:06.951Z,9.10
2019-01-04T05:10:33.278Z,5.83
2019-01-04T05:12:59.637Z,8.00
2019-01-04T05:15:25.854Z,7.03
2019-01-04T05:17:52.235Z,7.73
2019-01-04T05:20:18.661Z,7.93
2019-01-04T05:22:45.079Z,7.30
2019-01-04T05:25:11.399Z,7.40
2019-01-04T05:27:37.633Z,8.77
2019-01-04T05:30:04.008Z,8.20
2019-01-04T05:32:30.349Z,7.57
2019-01-04T05:34:56.687Z,7.10
2019-01-04T05:37:23.061Z,6.87
2019-01-04T05:39:49.381Z,6.20
2019-01-04T05:42:15.665Z,6.60
2019-01-04T05:44:42.025Z,6.73
2019-01-04T05:47:08.435Z,6.07
2019-01-04T05:49:34.776Z,8.60
2019-01-04T05:52:01.041Z,8.53
2019-01-04T05:54:27.259Z,8.33
2019-01-04T05:56:53.511Z,7.47
2019-01-04T05:59:19.653Z,6.90
2019-01-04T06:01:46.067Z,6.60
2019-01-04T06:04:12.299Z,8.17
2019-01-04T06:06:38.579Z,6.93
2019-01-04T06:09:06.413Z,5.00
2019-01-04T06:11:32.682Z,10.00
2019-01-04T06:13:58.977Z,5.83
2019-01-04T06:16:25.223Z,7.47
2019-01-04T06:18:51.469Z,5.83
2019-01-04T06:21:17.775Z,7.43
2019-01-04T06:23:44.005Z,6.43
2019-01-04T06:26:10.255Z,7.43
2019-01-04T06:28:36.491Z,8.07
2019-01-04T06:31:02.642Z,7.73
2019-01-04T06:33:28.893Z,7.43
2019-01-04T06:35:55.141Z,5.27
2019-01-04T06:38:21.587Z,7.40
2019-01-04T06:40:47.869Z,6.97
2019-01-04T06:43:14.171Z,9.27
2019-01-04T06:45:40.524Z,6.53
2019-01-04T06:48:06.909Z,7.57
2019-01-04T06:50:33.249Z,6.63
2019-01-04T06:52:59.650Z,7.47
2019-01-04T06:55:45.635Z,8.73
2019-01-04T06:58:11.901Z,7.23
2019-01-04T07:00:38.139Z,8.40
2019-01-04T07:03:04.425Z,7.47
2019-01-04T07:05:31.771Z,7.50
2019-01-04T07:07:58.121Z,5.30
2019-01-04T07:10:24.357Z,6.50
2019-01-04T07:12:50.596Z,6.90
2019-01-04T07:15:16.739Z,6.30
2019-01-04T07:17:42.927Z,9.37
2019-01-04T07:20:09.202Z,8.77
2019-01-04T07:22:35.415Z,7.53
2019-01-04T07:25:01.618Z,7.07
2019-01-04T07:27:27.851Z,7.93
2019-01-04T07:29:54.103Z,8.10
2019-01-04T07:32:20.258Z,7.50
2019-01-04T07:34:46.511Z,7.50
2019-01-04T07:37:12.650Z,6.77
2019-01-04T07:39:38.917Z,6.17
2019-01-04T07:42:05.276Z,7.97
2019-01-04T07:44:31.644Z,6.50
2019-01-04T07:46:58.010Z,8.70
2019-01-04T07:49:24.357Z,5.67
2019-01-04T07:51:50.633Z,8.63
2019-01-04T07:54:16.951Z,6.90
2019-01-04T07:56:43.138Z,10.10
2019-01-04T07:59:09.297Z,6.27
2019-01-04T08:01:35.550Z,8.40
2019-01-04T08:04:01.855Z,6.77
2019-01-04T08:06:28.082Z,7.10
2019-01-04T08:08:54.335Z,8.80
2019-01-04T08:11:20.482Z,7.97
2019-01-04T08:13:46.959Z,10.50
2019-01-04T08:16:13.213Z,10.07
2019-01-04T08:18:39.491Z,9.00
2019-01-04T08:21:05.743Z,9.40
2019-01-04T08:23:32.033Z,12.33
2019-01-04T08:25:58.280Z,11.17
2019-01-04T08:28:24.548Z,9.70
2019-01-04T08:30:50.843Z,11.00
2019-01-04T08:33:17.114Z,7.50
2019-01-04T08:35:43.476Z,9.80
2019-01-04T08:38:09.728Z,8.13
2019-01-04T08:40:35.979Z,11.90
2019-01-04T08:43:02.230Z,9.10
2019-01-04T08:45:28.474Z,9.40
2019-01-04T08:47:54.729Z,10.87
2019-01-04T08:50:20.974Z,10.27
2019-01-04T08:52:47.208Z,8.57
2019-01-04T08:55:13.558Z,10.13
2019-01-04T08:57:39.735Z,12.37
2019-01-04T09:00:09.698Z,9.50
2019-01-04T09:02:35.938Z,9.93
2019-01-04T09:05:02.194Z,9.93
2019-01-04T09:07:28.442Z,14.50
2019-01-04T09:09:54.804Z,9.30
2019-01-04T09:12:21.026Z,12.50
2019-01-04T09:14:47.184Z,9.87
2019-01-04T09:17:13.423Z,8.70
2019-01-04T09:19:39.704Z,7.97
2019-01-04T09:22:05.926Z,11.70
2019-01-04T09:24:32.357Z,7.80
2019-01-04T09:26:58.634Z,9.73
2019-01-04T09:29:24.877Z,8.93
2019-01-04T09:31:51.104Z,9.30
2019-01-04T09:34:17.407Z,9.70
2019-01-04T09:36:43.667Z,10.43
2019-01-04T09:39:09.918Z,10.53
2019-01-04T09:41:36.210Z,8.17
2019-01-04T09:44:02.890Z,9.80
2019-01-04T09:46:29.143Z,8.50
2019-01-04T09:48:55.376Z,13.67
2019-01-04T09:51:21.772Z,10.03
2019-01-04T09:53:48.128Z,9.70
2019-01-04T09:56:14.487Z,12.37
2019-01-04T09:58:40.752Z,10.23
2019-01-04T10:01:07.104Z,12.20
2019-01-04T10:03:33.324Z,10.07
2019-01-04T10:05:59.566Z,10.37
2019-01-04T10:08:25.851Z,13.10
2019-01-04T10:10:52.115Z,13.50
2019-01-04T10:13:18.348Z,9.50
2019-01-04T10:15:44.519Z,12.27
2019-01-04T10:18:10.888Z,10.00
2019-01-04T10:20:37.140Z,11.70
2019-01-04T10:23:03.361Z,11.80
2019-01-04T10:25:29.626Z,10.90
2019-01-04T10:27:55.886Z,8.30
2019-01-04T10:30:23.348Z,11.03
2019-01-04T10:32:49.577Z,11.90
2019-01-04T10:35:15.837Z,13.80
2019-01-04T10:37:42.081Z,11.73
2019-01-04T10:40:11.115Z,10.70
2019-01-04T10:42:36.387Z,13.40
2019-01-04T10:45:04.663Z,9.50
2019-01-04T10:47:30.904Z,10.63
2019-01-04T10:49:57.132Z,9.17
2019-01-04T10:52:24.079Z,10.33
2019-01-04T10:54:50.450Z,10.40
2019-01-04T10:57:16.834Z,11.20
2019-01-04T10:59:43.196Z,12.27
2019-01-04T11:02:09.447Z,9.37
2019-01-04T11:04:35.691Z,9.07
2019-01-04T11:07:01.846Z,12.47
2019-01-04T11:09:28.114Z,10.37
2019-01-04T11:11:54.238Z,13.47
2019-01-04T11:14:20.400Z,7.43
2019-01-04T11:16:46.633Z,10.00
2019-01-04T11:19:12.768Z,7.03
2019-01-04T11:21:39.014Z,10.57
2019-01-04T11:24:28.929Z,6.93
2019-01-04T11:26:55.171Z,12.00
2019-01-04T11:29:44.480Z,7.80
2019-01-04T11:32:22.738Z,6.63
2019-01-04T11:34:55.554Z,7.07
2019-01-04T11:37:38.076Z,8.37
2019-01-04T11:40:42.046Z,7.20
2019-01-04T11:43:14.839Z,8.67
2019-01-04T11:45:44.899Z,10.13
2019-01-04T11:48:20.835Z,9.57
2019-01-04T11:51:07.612Z,8.57
2019-01-04T11:53:33.852Z,8.53
2019-01-04T11:56:00.100Z,10.73
2019-01-04T11:58:26.339Z,11.07
2019-01-04T12:00:52.593Z,10.83
2019-01-04T12:03:19.848Z,9.13
2019-01-04T12:05:46.103Z,10.10
2019-01-04T12:08:12.375Z,10.10
2019-01-04T12:10:38.620Z,10.30
2019-01-04T12:13:04.883Z,10.30
2019-01-04T12:15:31.109Z,10.10
2019-01-04T12:17:57.255Z,11.33
2019-01-04T12:20:23.418Z,10.47
2019-01-04T12:22:49.713Z,11.50
2019-01-04T12:25:15.953Z,11.57
2019-01-04T12:27:42.276Z,10.17
2019-01-04T12:30:08.750Z,13.93
2019-01-04T12:32:35.088Z,10.50
2019-01-04T12:35:01.428Z,11.87
2019-01-04T12:37:27.657Z,10.07
2019-01-04T12:39:53.968Z,11.90
2019-01-04T12:42:20.353Z,10.50
2019-01-04T12:44:46.591Z,12.33
2019-01-04T12:47:12.875Z,11.30
2019-01-04T12:49:39.109Z,11.20
2019-01-04T12:52:05.375Z,9.07
2019-01-04T12:54:31.794Z,11.60
2019-01-04T12:56:58.033Z,11.57
2019-01-04T12:59:24.278Z,9.57
2019-01-04T13:01:50.520Z,9.63
2019-01-04T13:04:16.798Z,8.37
2019-01-04T13:06:43.100Z,10.40
2019-01-04T13:09:09.404Z,10.47
2019-01-04T13:11:35.674Z,11.23
2019-01-04T13:14:02.363Z,15.83
2019-01-04T13:16:28.504Z,11.27
2019-01-04T13:18:54.743Z,7.97
2019-01-04T13:21:20.898Z,8.67
2019-01-04T13:23:47.193Z,8.67
2019-01-04T13:26:13.526Z,11.37
2019-01-04T13:28:39.769Z,7.37
2019-01-04T13:31:05.923Z,9.67
2019-01-04T13:33:32.171Z,11.27
2019-01-04T13:35:58.442Z,8.10
2019-01-04T13:38:24.680Z,9.80
2019-01-04T13:40:50.938Z,12.63
2019-01-04T13:43:17.344Z,10.37
2019-01-04T13:45:43.676Z,7.13
2019-01-04T13:48:09.878Z,9.03
2019-01-04T13:50:36.104Z,9.77
2019-01-04T13:53:02.332Z,9.90
2019-01-04T13:55:28.564Z,9.77
2019-01-04T13:57:54.830Z,10.30
2019-01-04T14:00:21.062Z,9.57
2019-01-04T14:02:47.232Z,7.23
2019-01-04T14:05:13.477Z,7.77
2019-01-04T14:07:39.731Z,7.90
2019-01-04T14:10:07.973Z,10.83
2019-01-04T14:12:34.250Z,10.03
2019-01-04T14:15:00.452Z,9.37
2019-01-04T14:17:26.642Z,7.37
2019-01-04T14:19:52.872Z,8.73
2019-01-04T14:22:19.202Z,9.97
2019-01-04T14:24:45.406Z,9.97
2019-01-04T14:27:12.903Z,9.13
2019-01-04T14:29:39.084Z,10.57
2019-01-04T14:32:05.304Z,9.20
2019-01-04T14:34:31.571Z,8.63
2019-01-04T14:36:57.816Z,8.63
2019-01-04T14:39:24.046Z,9.57
2019-01-04T14:41:50.260Z,10.43
2019-01-04T14:44:16.614Z,10.90
2019-01-04T14:46:42.846Z,11.60
2019-01-04T14:49:08.986Z,8.60
2019-01-04T14:51:37.136Z,11.07
2019-01-04T14:54:03.289Z,10.43
2019-01-04T14:56:29.526Z,12.23
2019-01-04T14:58:55.787Z,9.87
2019-01-04T15:01:22.063Z,9.47
2019-01-04T15:03:48.293Z,8.87
2019-01-04T15:06:14.538Z,11.83
2019-01-04T15:08:40.778Z,8.77
2019-01-04T15:11:07.039Z,9.83
2019-01-04T15:13:34.192Z,9.17
2019-01-04T15:16:00.404Z,12.53
2019-01-04T15:18:26.642Z,11.60
2019-01-04T15:20:52.818Z,11.27
2019-01-04T15:23:19.123Z,9.10
2019-01-04T15:25:45.356Z,9.00
2019-01-04T15:28:11.626Z,9.73
2019-01-04T15:30:37.868Z,10.10
2019-01-04T15:33:04.208Z,12.67
2019-01-04T15:35:30.460Z,12.77
2019-01-04T15:37:56.748Z,9.27
2019-01-04T15:40:22.989Z,7.63
2019-01-04T15:42:49.247Z,7.77
2019-01-04T15:45:15.506Z,10.57
2019-01-04T15:47:41.775Z,7.83
2019-01-04T15:50:08.038Z,11.40
2019-01-04T15:52:34.314Z,9.43
2019-01-04T15:55:00.583Z,7.93
2019-01-04T15:57:26.988Z,11.60
2019-01-04T15:59:53.220Z,13.07
2019-01-04T16:02:19.471Z,8.23
2019-01-04T16:04:45.731Z,9.00
2019-01-04T16:07:11.972Z,10.17
2019-01-04T16:09:38.335Z,9.73
2019-01-04T16:12:04.601Z,9.33
2019-01-04T16:14:30.839Z,8.47
2019-01-04T16:16:57.108Z,10.17
2019-01-04T16:19:23.369Z,13.23
2019-01-04T16:21:49.611Z,11.37
2019-01-04T16:24:15.879Z,12.63
2019-01-04T16:26:42.087Z,14.37
2019-01-04T16:29:08.377Z,7.73
2019-01-04T16:31:34.610Z,7.80
2019-01-04T16:34:00.844Z,9.40
2019-01-04T16:36:27.034Z,9.07
2019-01-04T16:38:53.304Z,9.77
2019-01-04T16:41:19.558Z,10.13
2019-01-04T16:43:45.836Z,8.30
2019-01-04T16:46:12.102Z,8.60
2019-01-04T16:48:38.354Z,10.23
2019-01-04T16:51:04.599Z,9.83
2019-01-04T16:53:30.869Z,11.33
2019-01-04T16:55:57.075Z,8.90
2019-01-04T16:58:23.367Z,9.53
2019-01-04T17:00:49.598Z,10.37
2019-01-04T17:03:15.875Z,10.80
2019-01-04T17:05:42.104Z,10.57
2019-01-04T17:08:08.365Z,9.60
2019-01-04T17:10:34.589Z,8.67
2019-01-04T17:13:00.877Z,8.57
2019-01-04T17:15:27.109Z,8.73
2019-01-04T17:17:53.357Z,10.10
2019-01-04T17:20:19.714Z,9.07
2019-01-04T17:22:45.980Z,11.27
2019-01-04T17:25:12.397Z,8.67
2019-01-04T17:27:38.659Z,8.60
2019-01-04T17:30:07.317Z,9.37
2019-01-04T17:32:33.605Z,8.93
2019-01-04T17:34:59.951Z,9.20
2019-01-04T17:37:26.191Z,9.07
2019-01-04T17:39:52.428Z,9.73
2019-01-04T17:42:18.801Z,8.53
2019-01-04T17:44:45.076Z,8.80
2019-01-04T17:47:11.337Z,10.23
2019-01-04T17:49:37.604Z,11.37
2019-01-04T17:52:03.827Z,9.80
2019-01-04T17:54:30.110Z,9.60
2019-01-04T17:56:56.367Z,11.00
2019-01-04T17:59:22.616Z,10.10
2019-01-04T18:01:48.972Z,11.27
2019-01-04T18:04:15.239Z,10.93
2019-01-04T18:06:41.500Z,10.53
2019-01-04T18:09:07.767Z,11.53
2019-01-04T18:11:34.000Z,13.47
2019-01-04T18:14:00.267Z,12.13
2019-01-04T18:16:26.502Z,12.43
2019-01-04T18:18:52.764Z,9.77
2019-01-04T18:21:18.909Z,11.53
2019-01-04T18:23:45.215Z,12.90
2019-01-04T18:26:11.445Z,12.53
2019-01-04T18:28:37.713Z,12.40
2019-01-04T18:31:03.976Z,10.43
2019-01-04T18:33:30.168Z,11.90
2019-01-04T18:35:56.490Z,11.80
2019-01-04T18:38:22.754Z,12.40
2019-01-04T18:40:48.987Z,14.23
2019-01-04T18:43:15.160Z,14.10
2019-01-04T18:45:41.424Z,14.67
2019-01-04T18:48:07.670Z,12.10
2019-01-04T18:50:33.843Z,14.00
2019-01-04T18:53:00.124Z,13.07
2019-01-04T18:55:26.402Z,12.33
2019-01-04T18:57:52.672Z,13.47
2019-01-04T19:00:18.907Z,10.40
2019-01-04T19:02:45.149Z,10.00
2019-01-04T19:05:11.472Z,14.70
2019-01-04T19:07:37.854Z,12.60
2019-01-04T19:10:06.257Z,10.60
2019-01-04T19:12:32.522Z,13.13
2019-01-04T19:14:58.787Z,13.07
2019-01-04T19:17:25.038Z,12.43
2019-01-04T19:19:51.314Z,12.97
2019-01-04T19:22:17.562Z,12.17
2019-01-04T19:24:43.814Z,10.67
2019-01-04T19:27:10.062Z,11.27
2019-01-04T19:29:36.337Z,10.43
2019-01-04T19:32:02.596Z,10.93
2019-01-04T19:34:28.868Z,10.80
2019-01-04T19:36:55.137Z,11.43
2019-01-04T19:39:21.420Z,10.57
2019-01-04T19:41:47.655Z,10.40
2019-01-04T19:44:13.920Z,9.03
2019-01-04T19:46:40.169Z,9.83
2019-01-04T19:49:06.420Z,9.83
2019-01-04T19:51:32.592Z,9.30
2019-01-04T19:53:58.901Z,13.00
2019-01-04T19:56:25.242Z,9.00
2019-01-04T19:58:51.503Z,10.27
2019-01-04T20:01:17.758Z,10.93
2019-01-04T20:03:44.024Z,9.37
2019-01-04T20:06:36.141Z,8.53
2019-01-04T20:09:20.133Z,9.10
2019-01-04T20:12:14.891Z,7.40
2019-01-04T20:15:12.803Z,8.20
2019-01-04T20:17:50.448Z,9.13
2019-01-04T20:20:21.711Z,8.67
2019-01-04T20:23:02.238Z,8.13
2019-01-04T20:25:43.714Z,7.90
2019-01-04T20:28:27.515Z,7.33
2019-01-04T20:30:55.676Z,6.83
2019-01-04T20:33:40.476Z,9.13
2019-01-04T20:36:20.699Z,7.23
2019-01-04T20:38:51.903Z,7.67
2019-01-04T20:41:23.226Z,8.03
2019-01-04T20:43:57.168Z,7.13
2019-01-04T20:46:40.463Z,6.27
2019-01-04T20:49:24.045Z,6.90
2019-01-04T20:51:52.216Z,7.07
2019-01-04T20:54:37.311Z,5.67
2019-01-04T20:57:14.529Z,7.73
2019-01-04T20:59:45.400Z,9.30
2019-01-04T21:02:30.503Z,6.73
2019-01-04T21:05:01.382Z,5.13
2019-01-04T21:07:32.276Z,5.63
2019-01-04T21:10:17.583Z,4.60
2019-01-04T21:12:51.513Z,6.50
2019-01-04T21:15:25.732Z,5.70
2019-01-04T21:18:10.787Z,5.17
2019-01-04T21:20:45.000Z,4.73
2019-01-04T21:23:19.183Z,6.07
2019-01-04T21:25:50.323Z,5.37
2019-01-04T21:28:35.061Z,5.90
2019-01-04T21:31:19.863Z,4.93
2019-01-04T21:33:56.805Z,5.10
2019-01-04T21:36:33.818Z,4.80
2019-01-04T21:39:04.976Z,4.10
2019-01-04T21:41:33.129Z,3.93
2019-01-04T21:44:01.318Z,4.57
2019-01-04T21:46:46.209Z,4.10
2019-01-04T21:49:17.115Z,3.63
2019-01-04T21:51:54.157Z,4.13
2019-01-04T21:54:37.615Z,3.70
2019-01-04T21:57:24.213Z,4.47
2019-01-04T21:59:52.378Z,3.67
2019-01-04T22:02:37.678Z,3.23
2019-01-04T22:05:14.821Z,3.30
2019-01-04T22:07:42.986Z,4.30
2019-01-04T22:10:14.029Z,3.20
2019-01-04T22:12:42.212Z,3.00
2019-01-04T22:15:13.454Z,3.07
2019-01-04T22:17:58.623Z,3.17
2019-01-04T22:20:26.941Z,2.90
2019-01-04T22:23:01.432Z,3.07
2019-01-04T22:25:46.578Z,3.60
2019-01-04T22:28:29.953Z,3.40
2019-01-04T22:31:01.009Z,2.70
2019-01-04T22:33:29.241Z,3.37
2019-01-04T22:36:00.586Z,2.50
2019-01-04T22:38:45.387Z,3.00
2019-01-04T22:41:31.586Z,2.80
2019-01-04T22:44:06.029Z,3.07
2019-01-04T22:46:52.627Z,2.67
2019-01-04T22:49:39.138Z,3.27
2019-01-04T22:52:10.395Z,2.97
2019-01-04T22:54:38.555Z,2.97
2019-01-04T22:57:06.731Z,2.73
2019-01-04T22:59:40.888Z,2.10
2019-01-04T23:02:25.682Z,2.60
2019-01-04T23:04:53.819Z,2.63
2019-01-04T23:07:30.733Z,2.63
2019-01-04T23:10:07.918Z,2.60
2019-01-04T23:12:48.155Z,2.80
2019-01-04T23:15:19.940Z,2.90
2019-01-04T23:17:49.305Z,2.67
2019-01-04T23:20:32.801Z,2.50
2019-01-04T23:23:03.927Z,2.30
2019-01-04T23:25:49.082Z,2.67
2019-01-04T23:28:32.293Z,2.67
2019-01-04T23:31:03.227Z,2.60
2019-01-04T23:33:36.957Z,2.87
2019-01-04T23:36:22.016Z,2.90
2019-01-04T23:39:08.301Z,2.50
2019-01-04T23:41:42.257Z,2.60
2019-01-04T23:44:10.427Z,2.57
2019-01-04T23:46:38.776Z,2.13
2019-01-04T23:49:23.804Z,2.60
2019-01-04T23:51:51.974Z,2.70
2019-01-04T23:54:29.372Z,2.53
2019-01-04T23:56:57.517Z,2.47
2019-01-04T23:59:31.357Z,2.80
